createdAt,value
2022-12-15T00:01:41.732Z,11.60
2022-12-15T00:04:27.204Z,12.13
2022-12-15T00:07:12.072Z,11.43
2022-12-15T00:09:58.428Z,11.47
2022-12-15T00:12:43.609Z,11.60
2022-12-15T00:15:28.726Z,11.70
2022-12-15T00:18:13.644Z,12.40
2022-12-15T00:20:58.777Z,12.87
2022-12-15T00:23:43.610Z,11.80
2022-12-15T00:26:29.818Z,12.47
2022-12-15T00:29:14.598Z,12.77
2022-12-15T00:31:59.624Z,12.73
2022-12-15T00:34:44.661Z,12.50
2022-12-15T00:37:29.587Z,12.43
2022-12-15T00:39:59.648Z,12.00
2022-12-15T00:42:32.210Z,12.30
2022-12-15T00:44:59.908Z,11.57
2022-12-15T00:47:26.507Z,11.63
2022-12-15T00:50:11.586Z,12.30
2022-12-15T00:52:56.881Z,12.10
2022-12-15T00:55:41.873Z,12.40
2022-12-15T00:58:28.287Z,12.20
2022-12-15T01:01:13.077Z,12.30
2022-12-15T01:03:57.972Z,12.50
2022-12-15T01:06:43.236Z,12.00
2022-12-15T01:09:29.213Z,12.03
2022-12-15T01:12:14.216Z,12.33
2022-12-15T01:15:00.554Z,12.03
2022-12-15T01:17:45.256Z,11.50
2022-12-15T01:20:18.398Z,11.97
2022-12-15T01:22:46.209Z,12.07
2022-12-15T01:25:13.722Z,12.30
2022-12-15T01:27:41.589Z,10.87
2022-12-15T01:30:12.148Z,11.20
2022-12-15T01:32:45.688Z,10.77
2022-12-15T01:35:13.824Z,11.27
2022-12-15T01:37:41.349Z,10.47
2022-12-15T01:40:27.191Z,11.40
2022-12-15T01:42:54.675Z,11.50
2022-12-15T01:45:43.065Z,11.93
2022-12-15T01:48:12.120Z,11.53
2022-12-15T01:50:41.830Z,10.90
2022-12-15T01:53:09.477Z,11.93
2022-12-15T01:55:37.806Z,11.07
2022-12-15T01:58:07.713Z,11.10
2022-12-15T02:00:35.427Z,12.33
2022-12-15T02:03:05.484Z,11.30
2022-12-15T02:05:33.771Z,11.67
2022-12-15T02:08:01.566Z,10.63
2022-12-15T02:10:35.171Z,10.40
2022-12-15T02:13:04.132Z,11.70
2022-12-15T02:15:34.676Z,12.20
2022-12-15T02:18:06.457Z,11.77
2022-12-15T02:20:51.612Z,11.77
2022-12-15T02:23:34.727Z,11.97
2022-12-15T02:26:21.589Z,11.53
2022-12-15T02:28:53.629Z,11.23
2022-12-15T02:31:41.642Z,10.90
2022-12-15T02:34:12.625Z,11.10
2022-12-15T02:36:41.547Z,10.67
2022-12-15T02:39:08.931Z,10.90
2022-12-15T02:41:37.766Z,11.10
2022-12-15T02:44:10.555Z,11.30
2022-12-15T02:46:44.797Z,10.63
2022-12-15T02:49:17.491Z,11.00
2022-12-15T02:51:49.493Z,10.10
2022-12-15T02:54:28.940Z,10.43
2022-12-15T02:57:03.878Z,10.83
2022-12-15T02:59:38.722Z,10.30
2022-12-15T03:02:09.065Z,10.53
2022-12-15T03:04:36.792Z,10.87
2022-12-15T03:07:05.313Z,11.07
2022-12-15T03:09:33.245Z,10.73
2022-12-15T03:12:00.912Z,11.77
2022-12-15T03:14:28.425Z,11.47
2022-12-15T03:16:56.244Z,11.17
2022-12-15T03:19:25.795Z,10.77
2022-12-15T03:21:53.264Z,11.43
2022-12-15T03:24:20.801Z,11.50
2022-12-15T03:26:50.057Z,10.90
2022-12-15T03:29:18.049Z,11.23
2022-12-15T03:31:45.756Z,11.00
2022-12-15T03:34:17.174Z,11.27
2022-12-15T03:36:45.920Z,10.23
2022-12-15T03:39:13.378Z,11.50
2022-12-15T03:41:41.593Z,10.87
2022-12-15T03:44:09.168Z,10.20
2022-12-15T03:46:36.620Z,10.73
2022-12-15T03:49:04.313Z,11.70
2022-12-15T03:51:31.803Z,10.70
2022-12-15T03:54:00.741Z,10.40
2022-12-15T03:56:28.164Z,9.87
2022-12-15T03:58:55.601Z,10.50
2022-12-15T04:01:27.133Z,10.50
2022-12-15T04:04:00.200Z,10.73
2022-12-15T04:06:28.466Z,11.10
2022-12-15T04:08:55.923Z,10.80
2022-12-15T04:11:24.724Z,10.20
2022-12-15T04:13:52.180Z,10.83
2022-12-15T04:16:20.479Z,10.50
2022-12-15T04:19:08.190Z,11.00
2022-12-15T04:21:34.724Z,10.30
2022-12-15T04:24:19.764Z,10.60
2022-12-15T04:27:05.960Z,9.70
2022-12-15T04:29:50.872Z,10.20
2022-12-15T04:32:35.910Z,10.03
2022-12-15T04:35:20.792Z,10.47
2022-12-15T04:38:05.616Z,10.43
2022-12-15T04:40:50.403Z,10.70
2022-12-15T04:43:36.831Z,12.00
2022-12-15T04:46:21.745Z,10.47
2022-12-15T04:49:06.817Z,10.80
2022-12-15T04:51:52.255Z,10.93
2022-12-15T04:54:37.148Z,11.37
2022-12-15T04:57:21.927Z,10.93
2022-12-15T05:00:08.219Z,10.50
2022-12-15T05:02:52.971Z,10.63
2022-12-15T05:05:37.812Z,10.03
2022-12-15T05:08:23.022Z,10.20
2022-12-15T05:11:07.974Z,11.77
2022-12-15T05:13:52.746Z,10.27
2022-12-15T05:16:39.044Z,10.57
2022-12-15T05:19:24.176Z,10.40
2022-12-15T05:22:09.088Z,10.97
2022-12-15T05:24:54.046Z,10.40
2022-12-15T05:27:38.854Z,11.37
2022-12-15T05:30:24.350Z,10.77
2022-12-15T05:32:53.205Z,10.67
2022-12-15T05:35:20.617Z,10.03
2022-12-15T05:37:48.041Z,10.90
2022-12-15T05:40:15.592Z,10.63
2022-12-15T05:42:43.025Z,10.93
2022-12-15T05:45:11.248Z,10.70
2022-12-15T05:47:38.623Z,11.10
2022-12-15T05:50:08.160Z,10.60
2022-12-15T05:52:35.636Z,10.87
2022-12-15T05:55:03.097Z,10.20
2022-12-15T05:57:30.558Z,10.87
2022-12-15T05:59:57.986Z,13.33
2022-12-15T06:02:25.533Z,11.97
2022-12-15T06:04:53.067Z,11.80
2022-12-15T06:07:21.831Z,10.13
2022-12-15T06:09:49.247Z,11.17
2022-12-15T06:12:17.071Z,10.23
2022-12-15T06:14:44.527Z,11.20
2022-12-15T06:17:11.979Z,11.00
2022-12-15T06:19:39.402Z,11.50
2022-12-15T06:22:06.834Z,11.63
2022-12-15T06:24:35.584Z,11.83
2022-12-15T06:27:03.130Z,10.80
2022-12-15T06:29:30.675Z,10.50
2022-12-15T06:31:58.181Z,10.63
2022-12-15T06:34:25.757Z,11.47
2022-12-15T06:36:53.184Z,11.13
2022-12-15T06:39:21.471Z,11.10
2022-12-15T06:41:50.234Z,12.73
2022-12-15T06:44:18.081Z,12.30
2022-12-15T06:46:46.529Z,12.77
2022-12-15T06:49:14.383Z,16.60
2022-12-15T06:51:43.910Z,15.50
2022-12-15T06:54:12.051Z,14.57
2022-12-15T06:56:40.032Z,16.10
2022-12-15T06:59:09.366Z,16.90
2022-12-15T07:01:36.971Z,16.07
2022-12-15T07:04:05.620Z,16.57
2022-12-15T07:06:36.562Z,19.87
2022-12-15T07:09:04.964Z,16.60
2022-12-15T07:11:32.955Z,15.13
2022-12-15T07:14:00.471Z,15.37
2022-12-15T07:16:29.444Z,15.20
2022-12-15T07:18:56.923Z,16.17
2022-12-15T07:21:24.426Z,15.50
2022-12-15T07:23:55.293Z,16.27
2022-12-15T07:26:24.473Z,15.80
2022-12-15T07:28:52.880Z,14.93
2022-12-15T07:31:20.361Z,16.27
2022-12-15T07:33:49.310Z,17.30
2022-12-15T07:36:16.770Z,19.00
2022-12-15T07:38:45.433Z,15.83
2022-12-15T07:41:17.930Z,16.70
2022-12-15T07:43:46.567Z,16.60
2022-12-15T07:46:14.003Z,17.40
2022-12-15T07:48:41.485Z,17.97
2022-12-15T07:51:18.862Z,18.10
2022-12-15T07:53:46.931Z,17.87
2022-12-15T07:56:15.387Z,18.40
2022-12-15T07:58:44.210Z,17.23
2022-12-15T08:01:13.327Z,15.83
2022-12-15T08:03:41.486Z,15.63
2022-12-15T08:06:11.992Z,16.87
2022-12-15T08:08:39.992Z,19.43
2022-12-15T08:11:07.941Z,16.80
2022-12-15T08:16:22.784Z,16.60
2022-12-15T08:18:50.268Z,16.60
2022-12-15T08:21:19.094Z,18.60
2022-12-15T08:23:46.652Z,16.00
2022-12-15T08:26:15.009Z,17.00
2022-12-15T08:28:43.008Z,15.53
2022-12-15T08:31:12.274Z,16.87
2022-12-15T08:33:40.331Z,17.30
2022-12-15T08:36:09.210Z,16.10
2022-12-15T08:38:39.109Z,17.30
2022-12-15T08:41:10.524Z,16.90
2022-12-15T08:43:44.028Z,15.73
2022-12-15T08:46:15.458Z,16.10
2022-12-15T08:48:42.874Z,15.73
2022-12-15T08:51:10.802Z,16.83
2022-12-15T08:53:40.097Z,15.67
2022-12-15T08:56:08.448Z,15.33
2022-12-15T08:58:36.150Z,14.77
2022-12-15T09:01:04.810Z,15.47
2022-12-15T09:03:32.677Z,15.30
2022-12-15T09:06:02.534Z,15.13
2022-12-15T09:08:30.980Z,15.30
2022-12-15T09:11:00.088Z,15.13
2022-12-15T09:13:28.243Z,16.13
2022-12-15T09:16:14.269Z,15.67
2022-12-15T09:18:42.539Z,15.10
2022-12-15T09:21:11.197Z,15.40
2022-12-15T09:23:39.311Z,14.93
2022-12-15T09:26:09.799Z,14.70
2022-12-15T09:28:37.961Z,13.83
2022-12-15T09:31:05.909Z,14.70
2022-12-15T09:33:34.113Z,14.73
2022-12-15T09:36:01.846Z,15.10
2022-12-15T09:38:29.271Z,14.47
2022-12-15T09:40:57.056Z,15.53
2022-12-15T09:43:35.388Z,14.80
2022-12-15T09:46:07.366Z,14.63
2022-12-15T09:48:42.576Z,14.47
2022-12-15T09:51:11.706Z,14.37
2022-12-15T09:53:56.126Z,15.47
2022-12-15T09:56:28.439Z,15.03
2022-12-15T09:59:00.247Z,15.13
2022-12-15T10:01:33.497Z,16.33
2022-12-15T10:04:06.951Z,14.73
2022-12-15T10:06:37.402Z,15.37
2022-12-15T10:09:10.508Z,14.83
2022-12-15T10:11:44.886Z,15.10
2022-12-15T10:14:22.869Z,14.83
2022-12-15T10:16:58.319Z,15.40
2022-12-15T10:19:29.713Z,16.00
2022-12-15T10:21:57.598Z,14.80
2022-12-15T10:25:07.492Z,13.77
2022-12-15T10:27:21.750Z,14.50
2022-12-15T10:29:55.325Z,13.77
2022-12-15T10:32:26.593Z,15.80
2022-12-15T10:34:54.288Z,14.00
2022-12-15T10:37:22.223Z,15.20
2022-12-15T10:39:50.463Z,15.97
2022-12-15T10:42:21.040Z,15.10
2022-12-15T10:44:50.471Z,14.57
2022-12-15T10:47:21.234Z,13.60
2022-12-15T10:49:48.837Z,15.57
2022-12-15T10:52:20.880Z,15.07
2022-12-15T10:54:49.388Z,14.40
2022-12-15T10:57:18.577Z,13.40
2022-12-15T10:59:46.079Z,14.97
2022-12-15T11:05:24.003Z,15.00
2022-12-15T11:07:52.925Z,14.33
2022-12-15T11:10:22.080Z,13.97
2022-12-15T11:12:59.942Z,14.57
2022-12-15T11:15:47.184Z,14.17
2022-12-15T11:18:36.430Z,14.87
2022-12-15T11:21:06.352Z,14.53
2022-12-15T11:26:37.107Z,14.23
2022-12-15T11:29:10.881Z,15.00
2022-12-15T11:31:39.354Z,16.47
2022-12-15T11:34:13.049Z,15.60
2022-12-15T11:36:46.658Z,16.33
2022-12-15T11:39:20.252Z,16.77
2022-12-15T11:41:53.696Z,16.70
2022-12-15T11:44:25.018Z,15.90
2022-12-15T11:46:56.592Z,15.40
2022-12-15T11:49:40.996Z,14.87
2022-12-15T11:52:13.724Z,15.10
2022-12-15T11:54:45.046Z,15.70
2022-12-15T11:57:24.576Z,14.90
2022-12-15T11:59:58.250Z,15.00
2022-12-15T12:02:41.450Z,14.70
2022-12-15T12:05:22.012Z,14.20
2022-12-15T12:07:50.798Z,14.47
2022-12-15T12:10:25.087Z,15.40
2022-12-15T12:12:55.182Z,15.57
2022-12-15T12:15:27.817Z,16.27
2022-12-15T12:17:59.036Z,15.60
2022-12-15T12:20:40.858Z,17.80
2022-12-15T12:23:14.827Z,17.27
2022-12-15T12:25:45.608Z,15.77
2022-12-15T12:28:17.549Z,16.07
2022-12-15T12:30:50.341Z,16.30
2022-12-15T12:33:22.790Z,15.50
2022-12-15T12:35:55.133Z,18.70
2022-12-15T12:38:26.247Z,15.73
2022-12-15T12:41:00.219Z,15.33
2022-12-15T12:43:31.871Z,16.90
2022-12-15T12:46:02.598Z,15.70
2022-12-15T12:48:31.811Z,16.10
2022-12-15T12:51:11.677Z,15.60
2022-12-15T12:53:39.113Z,15.50
2022-12-15T12:56:06.771Z,15.50
2022-12-15T12:58:38.301Z,16.37
2022-12-15T13:01:07.462Z,17.00
2022-12-15T13:03:39.495Z,16.00
2022-12-15T13:06:20.822Z,17.27
2022-12-15T13:08:51.410Z,16.60
2022-12-15T13:11:34.051Z,15.50
2022-12-15T13:14:02.531Z,15.47
2022-12-15T13:16:32.256Z,16.67
2022-12-15T13:19:03.223Z,17.30
2022-12-15T13:21:54.922Z,17.27
2022-12-15T13:24:33.615Z,16.80
2022-12-15T13:27:15.241Z,15.87
2022-12-15T13:29:59.318Z,15.27
2022-12-15T13:32:29.875Z,15.00
2022-12-15T13:34:57.727Z,14.33
2022-12-15T13:37:48.880Z,15.50
2022-12-15T13:40:26.560Z,14.40
2022-12-15T13:42:58.368Z,14.57
2022-12-15T13:45:36.295Z,16.27
2022-12-15T13:48:08.978Z,15.37
2022-12-15T13:50:40.595Z,16.53
2022-12-15T13:53:19.290Z,15.00
2022-12-15T13:55:53.930Z,15.00
2022-12-15T13:58:21.670Z,14.73
2022-12-15T14:00:51.279Z,14.93
2022-12-15T14:03:18.852Z,13.93
2022-12-15T14:05:54.105Z,14.40
2022-12-15T14:08:23.884Z,16.20
2022-12-15T14:10:52.883Z,15.77
2022-12-15T14:13:22.190Z,15.77
2022-12-15T14:15:53.643Z,15.13
2022-12-15T14:18:25.625Z,15.27
2022-12-15T14:20:53.976Z,15.57
2022-12-15T14:23:23.897Z,17.07
2022-12-15T14:25:58.157Z,15.83
2022-12-15T14:28:26.537Z,15.67
2022-12-15T14:30:54.077Z,48.60
2022-12-15T14:33:26.522Z,18.40
2022-12-15T14:35:57.727Z,15.33
2022-12-15T14:38:31.501Z,15.40
2022-12-15T14:41:01.927Z,16.00
2022-12-15T14:43:31.284Z,18.38
2022-12-15T14:46:07.516Z,16.30
2022-12-15T14:48:41.544Z,15.80
2022-12-15T14:51:10.591Z,15.63
2022-12-15T14:53:40.573Z,16.10
2022-12-15T14:56:30.168Z,15.23
2022-12-15T14:59:03.842Z,15.67
2022-12-15T15:01:34.482Z,16.20
2022-12-15T15:03:06.811Z,14.87
2022-12-15T15:03:09.171Z,14.83
2022-12-15T15:04:05.392Z,14.90
2022-12-15T15:06:35.072Z,15.40
2022-12-15T15:09:17.263Z,14.93
2022-12-15T15:11:44.888Z,15.20
2022-12-15T15:14:14.462Z,14.97
2022-12-15T15:16:42.277Z,15.50
2022-12-15T15:19:16.221Z,15.20
2022-12-15T15:21:43.671Z,15.70
2022-12-15T15:24:23.217Z,14.97
2022-12-15T15:26:50.659Z,15.80
2022-12-15T15:29:37.619Z,16.97
2022-12-15T15:32:15.724Z,17.40
2022-12-15T15:34:43.252Z,17.83
2022-12-15T15:37:17.979Z,18.10
2022-12-15T15:39:48.463Z,17.93
2022-12-15T15:42:15.832Z,18.20
2022-12-15T15:44:43.305Z,17.70
2022-12-15T15:47:17.633Z,16.57
2022-12-15T15:49:45.795Z,14.30
2022-12-15T15:52:13.912Z,14.90
2022-12-15T15:54:42.542Z,15.20
2022-12-15T15:57:13.096Z,14.33
2022-12-15T15:59:42.207Z,14.57
2022-12-15T16:02:10.224Z,14.03
2022-12-15T16:04:40.586Z,13.37
2022-12-15T16:07:08.905Z,14.43
2022-12-15T16:09:36.288Z,14.63
2022-12-15T16:12:03.874Z,13.90
2022-12-15T16:14:32.655Z,13.83
2022-12-15T16:17:00.052Z,14.27
2022-12-15T16:19:28.586Z,15.33
2022-12-15T16:21:56.295Z,14.47
2022-12-15T16:24:23.683Z,15.17
2022-12-15T16:26:51.715Z,16.40
2022-12-15T16:29:19.955Z,15.30
2022-12-15T16:31:48.882Z,13.60
2022-12-15T16:34:17.617Z,15.10
2022-12-15T16:36:45.243Z,16.37
2022-12-15T16:39:24.203Z,19.00
2022-12-15T16:41:52.515Z,19.70
2022-12-15T16:44:19.971Z,19.53
2022-12-15T16:46:48.853Z,16.17
2022-12-15T16:49:16.337Z,16.77
2022-12-15T16:51:45.022Z,16.57
2022-12-15T16:54:16.063Z,14.70
2022-12-15T16:56:43.522Z,14.77
2022-12-15T16:59:32.628Z,15.10
2022-12-15T17:02:03.035Z,13.07
2022-12-15T17:04:30.568Z,15.67
2022-12-15T17:06:58.014Z,13.50
2022-12-15T17:09:26.460Z,13.60
2022-12-15T17:11:54.058Z,12.90
2022-12-15T17:14:21.439Z,13.10
2022-12-15T17:16:48.837Z,14.37
2022-12-15T17:19:21.288Z,15.30
2022-12-15T17:21:51.813Z,14.20
2022-12-15T17:24:21.021Z,14.80
2022-12-15T17:26:48.731Z,14.93
2022-12-15T17:29:17.783Z,14.00
2022-12-15T17:31:45.335Z,14.30
2022-12-15T17:34:23.939Z,13.93
2022-12-15T17:36:51.401Z,13.80
2022-12-15T17:39:19.624Z,14.30
2022-12-15T17:42:04.349Z,15.40
2022-12-15T17:44:35.519Z,17.73
2022-12-15T17:47:03.630Z,27.90
2022-12-15T17:49:35.913Z,19.13
2022-12-15T17:52:05.455Z,18.30
2022-12-15T17:54:33.026Z,20.20
2022-12-15T17:57:00.712Z,18.63
2022-12-15T17:59:28.136Z,15.43
2022-12-15T18:01:57.068Z,16.10
2022-12-15T18:04:24.932Z,16.70
2022-12-15T18:07:00.976Z,16.30
2022-12-15T18:09:29.592Z,16.57
2022-12-15T18:11:57.272Z,15.50
2022-12-15T18:14:24.917Z,15.13
2022-12-15T18:16:52.343Z,16.30
2022-12-15T18:19:20.201Z,19.10
2022-12-15T18:21:47.697Z,16.33
2022-12-15T18:24:21.336Z,15.10
2022-12-15T18:26:48.799Z,15.40
2022-12-15T18:29:17.866Z,15.90
2022-12-15T18:31:46.857Z,18.27
2022-12-15T18:34:16.446Z,17.20
2022-12-15T18:36:44.082Z,16.50
2022-12-15T18:39:18.655Z,19.47
2022-12-15T18:41:46.475Z,17.30
2022-12-15T18:44:20.083Z,19.43
2022-12-15T18:46:48.273Z,16.67
2022-12-15T18:49:15.953Z,17.90
2022-12-15T18:51:43.434Z,17.90
2022-12-15T18:54:15.555Z,17.70
2022-12-15T18:56:44.285Z,18.70
2022-12-15T18:59:15.542Z,17.30
2022-12-15T19:01:43.821Z,17.77
2022-12-15T19:04:11.440Z,16.40
2022-12-15T19:06:40.499Z,17.70
2022-12-15T19:09:11.560Z,16.50
2022-12-15T19:11:39.046Z,16.10
2022-12-15T19:14:35.073Z,15.97
2022-12-15T19:17:19.864Z,16.37
2022-12-15T19:20:04.818Z,17.00
2022-12-15T19:22:32.291Z,18.20
2022-12-15T19:24:59.750Z,19.70
2022-12-15T19:27:27.379Z,17.97
2022-12-15T19:29:56.176Z,16.77
2022-12-15T19:32:23.951Z,17.60
2022-12-15T19:34:51.693Z,16.53
2022-12-15T19:37:25.076Z,16.57
2022-12-15T19:39:53.300Z,17.23
2022-12-15T19:42:21.303Z,17.67
2022-12-15T19:44:48.768Z,17.73
2022-12-15T19:47:17.825Z,16.70
2022-12-15T19:49:45.251Z,16.03
2022-12-15T19:52:14.731Z,17.57
2022-12-15T19:54:42.339Z,16.70
2022-12-15T19:57:12.325Z,19.87
2022-12-15T19:59:39.902Z,18.37
2022-12-15T20:02:08.067Z,18.67
2022-12-15T20:04:39.419Z,17.77
2022-12-15T20:07:07.030Z,17.50
2022-12-15T20:09:34.500Z,17.63
2022-12-15T20:12:01.913Z,19.90
2022-12-15T20:14:30.206Z,17.90
2022-12-15T20:16:57.808Z,17.37
2022-12-15T20:19:25.720Z,17.47
2022-12-15T20:21:54.496Z,18.20
2022-12-15T20:24:21.987Z,17.90
2022-12-15T20:26:49.768Z,18.37
2022-12-15T20:29:22.388Z,18.13
2022-12-15T20:31:49.827Z,17.20
2022-12-15T20:34:17.376Z,18.50
2022-12-15T20:36:44.909Z,19.30
2022-12-15T20:39:18.212Z,21.73
2022-12-15T20:41:45.695Z,18.60
2022-12-15T20:44:13.728Z,18.80
2022-12-15T20:46:41.279Z,19.87
2022-12-15T20:49:14.817Z,16.77
2022-12-15T20:51:42.446Z,16.60
2022-12-15T20:54:14.927Z,17.37
2022-12-15T20:56:43.724Z,16.40
2022-12-15T20:59:11.741Z,17.03
2022-12-15T21:01:40.000Z,16.77
2022-12-15T21:04:22.702Z,18.53
2022-12-15T21:06:54.633Z,16.83
2022-12-15T21:09:22.887Z,16.73
2022-12-15T21:11:54.035Z,17.03
2022-12-15T21:14:22.771Z,16.90
2022-12-15T21:16:50.424Z,17.43
2022-12-15T21:19:20.780Z,17.87
2022-12-15T21:21:51.870Z,18.33
2022-12-15T21:24:20.635Z,16.37
2022-12-15T21:26:48.226Z,16.93
2022-12-15T21:29:18.425Z,17.37
2022-12-15T21:31:46.228Z,17.40
2022-12-15T21:34:13.776Z,17.80
2022-12-15T21:36:42.873Z,16.70
2022-12-15T21:39:13.790Z,17.43
2022-12-15T21:41:42.747Z,17.37
2022-12-15T21:44:15.748Z,18.43
2022-12-15T21:46:44.730Z,17.00
2022-12-15T21:49:18.325Z,17.30
2022-12-15T21:51:47.053Z,18.40
2022-12-15T21:54:16.373Z,17.37
2022-12-15T21:56:43.941Z,15.87
2022-12-15T21:59:12.727Z,16.43
2022-12-15T22:01:40.227Z,16.83
2022-12-15T22:04:15.819Z,16.00
2022-12-15T22:06:47.267Z,17.60
2022-12-15T22:09:18.389Z,16.60
2022-12-15T22:11:47.557Z,16.30
2022-12-15T22:14:17.148Z,16.33
2022-12-15T22:16:44.618Z,15.30
2022-12-15T22:19:13.755Z,15.67
2022-12-15T22:21:42.615Z,16.20
2022-12-15T22:24:10.327Z,16.23
2022-12-15T22:26:38.478Z,16.70
2022-12-15T22:29:11.736Z,16.80
2022-12-15T22:31:39.110Z,16.50
2022-12-15T22:34:11.745Z,15.97
2022-12-15T22:36:40.630Z,16.47
2022-12-15T22:39:10.867Z,16.90
2022-12-15T22:41:40.006Z,15.40
2022-12-15T22:44:10.957Z,15.40
2022-12-15T22:46:38.409Z,15.70
2022-12-15T22:49:05.837Z,16.53
2022-12-15T22:51:33.284Z,17.30
2022-12-15T22:54:02.259Z,19.80
2022-12-15T22:56:33.276Z,19.30
2022-12-15T22:59:02.138Z,18.93
2022-12-15T23:01:30.321Z,17.93
2022-12-15T23:03:57.850Z,16.37
2022-12-15T23:06:27.148Z,16.07
2022-12-15T23:08:56.318Z,17.23
2022-12-15T23:11:39.561Z,15.50
2022-12-15T23:14:08.270Z,15.67
2022-12-15T23:16:34.995Z,15.90
2022-12-15T23:19:03.465Z,16.17
2022-12-15T23:21:32.332Z,17.17
2022-12-15T23:23:59.808Z,15.90
2022-12-15T23:26:28.608Z,17.50
2022-12-15T23:28:56.289Z,16.07
2022-12-15T23:31:23.894Z,16.47
2022-12-15T23:33:51.957Z,15.50
2022-12-15T23:36:19.858Z,15.33
2022-12-15T23:38:47.301Z,16.97
2022-12-15T23:41:16.995Z,16.60
2022-12-15T23:43:45.977Z,16.03
2022-12-15T23:46:13.591Z,15.80
2022-12-15T23:48:42.117Z,16.70
2022-12-15T23:51:10.783Z,16.30
2022-12-15T23:53:38.848Z,16.50
2022-12-15T23:56:07.473Z,16.20
2022-12-15T23:58:35.548Z,16.97
